sensor_id;sensor_type;location;lat;lon;timestamp;P1;durP1;ratioP1;P2;durP2;ratioP2
48487;SDS011;34289;48.572;13.378;2024-03-06T00:02:09;27.55;;;14.15;;
48487;SDS011;34289;48.572;13.378;2024-03-06T00:04:35;18.90;;;11.60;;
48487;SDS011;34289;48.572;13.378;2024-03-06T00:07:01;24.50;;;13.68;;
48487;SDS011;34289;48.572;13.378;2024-03-06T00:09:27;22.60;;;12.70;;
48487;SDS011;34289;48.572;13.378;2024-03-06T00:11:53;31.73;;;14.60;;
48487;SDS011;34289;48.572;13.378;2024-03-06T00:14:19;28.38;;;14.55;;
48487;SDS011;34289;48.572;13.378;2024-03-06T00:16:46;28.75;;;14.30;;
48487;SDS011;34289;48.572;13.378;2024-03-06T00:19:12;28.40;;;14.18;;
48487;SDS011;34289;48.572;13.378;2024-03-06T00:21:38;26.13;;;14.73;;
48487;SDS011;34289;48.572;13.378;2024-03-06T00:24:04;27.58;;;14.27;;
48487;SDS011;34289;48.572;13.378;2024-03-06T00:26:30;23.83;;;14.65;;
48487;SDS011;34289;48.572;13.378;2024-03-06T00:28:56;23.98;;;13.82;;
48487;SDS011;34289;48.572;13.378;2024-03-06T00:31:21;23.27;;;13.82;;
48487;SDS011;34289;48.572;13.378;2024-03-06T00:33:47;24.17;;;13.27;;
48487;SDS011;34289;48.572;13.378;2024-03-06T00:36:13;26.13;;;14.50;;
48487;SDS011;34289;48.572;13.378;2024-03-06T00:38:39;23.95;;;14.02;;
48487;SDS011;34289;48.572;13.378;2024-03-06T00:41:04;23.27;;;12.65;;
48487;SDS011;34289;48.572;13.378;2024-03-06T00:43:30;23.25;;;12.98;;
48487;SDS011;34289;48.572;13.378;2024-03-06T00:45:56;25.27;;;13.57;;
48487;SDS011;34289;48.572;13.378;2024-03-06T00:48:22;20.25;;;12.77;;
48487;SDS011;34289;48.572;13.378;2024-03-06T00:50:47;23.40;;;12.57;;
48487;SDS011;34289;48.572;13.378;2024-03-06T00:53:13;22.52;;;11.95;;
48487;SDS011;34289;48.572;13.378;2024-03-06T00:55:39;24.33;;;13.75;;
48487;SDS011;34289;48.572;13.378;2024-03-06T00:58:04;25.27;;;14.23;;
48487;SDS011;34289;48.572;13.378;2024-03-06T01:00:31;19.98;;;12.68;;
48487;SDS011;34289;48.572;13.378;2024-03-06T01:02:57;19.08;;;11.07;;
48487;SDS011;34289;48.572;13.378;2024-03-06T01:05:23;22.42;;;13.60;;
48487;SDS011;34289;48.572;13.378;2024-03-06T01:07:49;23.77;;;13.43;;
48487;SDS011;34289;48.572;13.378;2024-03-06T01:10:15;22.77;;;12.23;;
48487;SDS011;34289;48.572;13.378;2024-03-06T01:12:40;19.08;;;11.70;;
48487;SDS011;34289;48.572;13.378;2024-03-06T01:15:09;21.27;;;12.40;;
48487;SDS011;34289;48.572;13.378;2024-03-06T01:17:35;24.20;;;12.95;;
48487;SDS011;34289;48.572;13.378;2024-03-06T01:20:00;24.90;;;13.68;;
48487;SDS011;34289;48.572;13.378;2024-03-06T01:22:27;21.65;;;13.10;;
48487;SDS011;34289;48.572;13.378;2024-03-06T01:24:52;20.40;;;11.82;;
48487;SDS011;34289;48.572;13.378;2024-03-06T01:27:18;20.90;;;12.45;;
48487;SDS011;34289;48.572;13.378;2024-03-06T01:29:43;23.65;;;13.45;;
48487;SDS011;34289;48.572;13.378;2024-03-06T01:32:09;21.10;;;11.70;;
48487;SDS011;34289;48.572;13.378;2024-03-06T01:34:38;21.35;;;12.68;;
48487;SDS011;34289;48.572;13.378;2024-03-06T01:37:03;24.70;;;12.70;;
48487;SDS011;34289;48.572;13.378;2024-03-06T01:39:29;22.02;;;13.15;;
48487;SDS011;34289;48.572;13.378;2024-03-06T01:41:54;25.35;;;14.18;;
48487;SDS011;34289;48.572;13.378;2024-03-06T01:44:20;17.30;;;11.00;;
48487;SDS011;34289;48.572;13.378;2024-03-06T01:46:46;17.95;;;11.02;;
48487;SDS011;34289;48.572;13.378;2024-03-06T01:49:12;19.08;;;11.75;;
48487;SDS011;34289;48.572;13.378;2024-03-06T01:51:42;21.17;;;12.63;;
48487;SDS011;34289;48.572;13.378;2024-03-06T01:54:13;28.05;;;15.48;;
48487;SDS011;34289;48.572;13.378;2024-03-06T01:56:39;28.60;;;16.42;;
48487;SDS011;34289;48.572;13.378;2024-03-06T01:59:11;24.90;;;13.98;;
48487;SDS011;34289;48.572;13.378;2024-03-06T02:01:44;21.80;;;13.73;;
48487;SDS011;34289;48.572;13.378;2024-03-06T02:04:11;21.52;;;13.75;;
48487;SDS011;34289;48.572;13.378;2024-03-06T02:06:40;22.52;;;12.52;;
48487;SDS011;34289;48.572;13.378;2024-03-06T02:09:06;26.70;;;12.98;;
48487;SDS011;34289;48.572;13.378;2024-03-06T02:11:33;24.67;;;13.80;;
48487;SDS011;34289;48.572;13.378;2024-03-06T02:13:58;21.20;;;13.43;;
48487;SDS011;34289;48.572;13.378;2024-03-06T02:16:24;26.70;;;15.52;;
48487;SDS011;34289;48.572;13.378;2024-03-06T02:18:54;22.17;;;13.90;;
48487;SDS011;34289;48.572;13.378;2024-03-06T02:21:20;19.17;;;11.82;;
48487;SDS011;34289;48.572;13.378;2024-03-06T02:23:47;22.80;;;13.77;;
48487;SDS011;34289;48.572;13.378;2024-03-06T02:26:13;27.90;;;15.05;;
48487;SDS011;34289;48.572;13.378;2024-03-06T02:28:39;31.05;;;14.65;;
48487;SDS011;34289;48.572;13.378;2024-03-06T02:31:11;21.43;;;14.03;;
48487;SDS011;34289;48.572;13.378;2024-03-06T02:33:37;25.23;;;14.55;;
48487;SDS011;34289;48.572;13.378;2024-03-06T02:36:02;25.42;;;13.73;;
48487;SDS011;34289;48.572;13.378;2024-03-06T02:38:30;23.48;;;13.57;;
48487;SDS011;34289;48.572;13.378;2024-03-06T02:40:56;24.67;;;13.45;;
48487;SDS011;34289;48.572;13.378;2024-03-06T02:43:22;22.17;;;13.20;;
48487;SDS011;34289;48.572;13.378;2024-03-06T02:45:47;32.05;;;14.25;;
48487;SDS011;34289;48.572;13.378;2024-03-06T02:48:13;27.88;;;14.75;;
48487;SDS011;34289;48.572;13.378;2024-03-06T02:50:39;21.20;;;13.23;;
48487;SDS011;34289;48.572;13.378;2024-03-06T02:53:04;23.00;;;13.02;;
48487;SDS011;34289;48.572;13.378;2024-03-06T02:55:30;28.17;;;15.10;;
48487;SDS011;34289;48.572;13.378;2024-03-06T02:57:55;26.98;;;14.90;;
48487;SDS011;34289;48.572;13.378;2024-03-06T03:00:21;24.80;;;15.30;;
48487;SDS011;34289;48.572;13.378;2024-03-06T03:02:47;26.45;;;15.80;;
48487;SDS011;34289;48.572;13.378;2024-03-06T03:05:13;26.75;;;16.15;;
48487;SDS011;34289;48.572;13.378;2024-03-06T03:07:39;27.90;;;17.30;;
48487;SDS011;34289;48.572;13.378;2024-03-06T03:10:05;21.05;;;13.90;;
48487;SDS011;34289;48.572;13.378;2024-03-06T03:12:31;23.20;;;13.98;;
48487;SDS011;34289;48.572;13.378;2024-03-06T03:14:57;53.88;;;14.23;;
48487;SDS011;34289;48.572;13.378;2024-03-06T03:17:23;103.53;;;14.75;;
48487;SDS011;34289;48.572;13.378;2024-03-06T03:19:48;22.58;;;15.32;;
48487;SDS011;34289;48.572;13.378;2024-03-06T03:22:14;90.97;;;14.80;;
48487;SDS011;34289;48.572;13.378;2024-03-06T03:24:41;65.93;;;16.27;;
48487;SDS011;34289;48.572;13.378;2024-03-06T03:27:07;93.07;;;13.88;;
48487;SDS011;34289;48.572;13.378;2024-03-06T03:29:33;22.10;;;14.07;;
48487;SDS011;34289;48.572;13.378;2024-03-06T03:31:59;57.60;;;13.00;;
48487;SDS011;34289;48.572;13.378;2024-03-06T03:34:24;34.17;;;13.20;;
48487;SDS011;34289;48.572;13.378;2024-03-06T03:36:50;20.63;;;12.65;;
48487;SDS011;34289;48.572;13.378;2024-03-06T03:39:15;22.63;;;14.13;;
48487;SDS011;34289;48.572;13.378;2024-03-06T03:41:47;24.73;;;15.80;;
48487;SDS011;34289;48.572;13.378;2024-03-06T03:44:14;24.67;;;15.93;;
48487;SDS011;34289;48.572;13.378;2024-03-06T03:46:40;24.02;;;16.30;;
48487;SDS011;34289;48.572;13.378;2024-03-06T03:49:06;34.25;;;17.58;;
48487;SDS011;34289;48.572;13.378;2024-03-06T03:51:32;24.95;;;16.65;;
48487;SDS011;34289;48.572;13.378;2024-03-06T03:53:57;110.25;;;16.73;;
48487;SDS011;34289;48.572;13.378;2024-03-06T03:56:23;52.45;;;16.73;;
48487;SDS011;34289;48.572;13.378;2024-03-06T03:58:48;42.03;;;16.10;;
48487;SDS011;34289;48.572;13.378;2024-03-06T04:01:14;58.65;;;16.02;;
48487;SDS011;34289;48.572;13.378;2024-03-06T04:03:40;61.22;;;16.05;;
48487;SDS011;34289;48.572;13.378;2024-03-06T04:06:07;59.42;;;17.08;;
48487;SDS011;34289;48.572;13.378;2024-03-06T04:08:33;56.00;;;15.65;;
48487;SDS011;34289;48.572;13.378;2024-03-06T04:10:59;93.45;;;18.38;;
48487;SDS011;34289;48.572;13.378;2024-03-06T04:13:25;93.93;;;17.00;;
48487;SDS011;34289;48.572;13.378;2024-03-06T04:15:51;71.35;;;18.05;;
48487;SDS011;34289;48.572;13.378;2024-03-06T04:18:16;55.20;;;15.77;;
48487;SDS011;34289;48.572;13.378;2024-03-06T04:20:42;46.20;;;15.73;;
48487;SDS011;34289;48.572;13.378;2024-03-06T04:23:07;52.47;;;16.17;;
48487;SDS011;34289;48.572;13.378;2024-03-06T04:25:35;78.70;;;16.45;;
48487;SDS011;34289;48.572;13.378;2024-03-06T04:28:05;41.53;;;14.93;;
48487;SDS011;34289;48.572;13.378;2024-03-06T04:30:35;60.13;;;14.30;;
48487;SDS011;34289;48.572;13.378;2024-03-06T04:33:01;107.25;;;14.85;;
48487;SDS011;34289;48.572;13.378;2024-03-06T04:35:28;80.22;;;15.25;;
48487;SDS011;34289;48.572;13.378;2024-03-06T04:37:54;90.30;;;17.52;;
48487;SDS011;34289;48.572;13.378;2024-03-06T04:40:21;59.38;;;15.30;;
48487;SDS011;34289;48.572;13.378;2024-03-06T04:42:47;39.75;;;14.90;;
48487;SDS011;34289;48.572;13.378;2024-03-06T04:45:16;65.22;;;14.35;;
48487;SDS011;34289;48.572;13.378;2024-03-06T04:47:42;61.92;;;17.00;;
48487;SDS011;34289;48.572;13.378;2024-03-06T04:50:12;54.55;;;16.23;;
48487;SDS011;34289;48.572;13.378;2024-03-06T04:52:39;36.13;;;15.75;;
48487;SDS011;34289;48.572;13.378;2024-03-06T04:55:05;34.00;;;15.90;;
48487;SDS011;34289;48.572;13.378;2024-03-06T04:57:32;30.60;;;15.32;;
48487;SDS011;34289;48.572;13.378;2024-03-06T05:00:00;56.75;;;14.40;;
48487;SDS011;34289;48.572;13.378;2024-03-06T05:02:29;47.65;;;12.70;;
48487;SDS011;34289;48.572;13.378;2024-03-06T05:04:54;24.05;;;13.55;;
48487;SDS011;34289;48.572;13.378;2024-03-06T05:07:20;70.57;;;15.13;;
48487;SDS011;34289;48.572;13.378;2024-03-06T05:09:46;83.60;;;16.63;;
48487;SDS011;34289;48.572;13.378;2024-03-06T05:12:11;39.35;;;15.60;;
48487;SDS011;34289;48.572;13.378;2024-03-06T05:14:37;30.25;;;13.70;;
48487;SDS011;34289;48.572;13.378;2024-03-06T05:17:03;46.60;;;14.38;;
48487;SDS011;34289;48.572;13.378;2024-03-06T05:19:28;25.85;;;13.93;;
48487;SDS011;34289;48.572;13.378;2024-03-06T05:21:57;29.38;;;14.15;;
48487;SDS011;34289;48.572;13.378;2024-03-06T05:24:24;29.58;;;13.05;;
48487;SDS011;34289;48.572;13.378;2024-03-06T05:26:49;19.15;;;14.02;;
48487;SDS011;34289;48.572;13.378;2024-03-06T05:29:15;20.05;;;13.90;;
48487;SDS011;34289;48.572;13.378;2024-03-06T05:31:41;22.30;;;16.45;;
48487;SDS011;34289;48.572;13.378;2024-03-06T05:34:07;25.13;;;17.85;;
48487;SDS011;34289;48.572;13.378;2024-03-06T05:36:33;19.35;;;13.57;;
48487;SDS011;34289;48.572;13.378;2024-03-06T05:38:58;19.30;;;14.55;;
48487;SDS011;34289;48.572;13.378;2024-03-06T05:41:24;22.83;;;15.52;;
48487;SDS011;34289;48.572;13.378;2024-03-06T05:43:49;20.65;;;14.65;;
48487;SDS011;34289;48.572;13.378;2024-03-06T05:46:15;20.33;;;14.57;;
48487;SDS011;34289;48.572;13.378;2024-03-06T05:48:41;25.48;;;15.25;;
48487;SDS011;34289;48.572;13.378;2024-03-06T05:51:07;20.67;;;13.68;;
48487;SDS011;34289;48.572;13.378;2024-03-06T05:53:39;20.10;;;14.35;;
48487;SDS011;34289;48.572;13.378;2024-03-06T05:56:07;18.70;;;13.75;;
48487;SDS011;34289;48.572;13.378;2024-03-06T05:58:33;17.38;;;13.13;;
48487;SDS011;34289;48.572;13.378;2024-03-06T06:00:59;19.20;;;14.60;;
48487;SDS011;34289;48.572;13.378;2024-03-06T06:03:26;21.15;;;14.40;;
48487;SDS011;34289;48.572;13.378;2024-03-06T06:05:53;25.80;;;15.73;;
48487;SDS011;34289;48.572;13.378;2024-03-06T06:08:19;24.95;;;15.50;;
48487;SDS011;34289;48.572;13.378;2024-03-06T06:10:45;24.45;;;14.45;;
48487;SDS011;34289;48.572;13.378;2024-03-06T06:13:11;21.65;;;13.52;;
48487;SDS011;34289;48.572;13.378;2024-03-06T06:15:37;19.42;;;13.90;;
48487;SDS011;34289;48.572;13.378;2024-03-06T06:18:03;21.40;;;14.88;;
48487;SDS011;34289;48.572;13.378;2024-03-06T06:20:30;23.10;;;15.75;;
48487;SDS011;34289;48.572;13.378;2024-03-06T06:22:56;36.75;;;19.83;;
48487;SDS011;34289;48.572;13.378;2024-03-06T06:25:22;26.83;;;17.05;;
48487;SDS011;34289;48.572;13.378;2024-03-06T06:27:50;33.80;;;15.52;;
48487;SDS011;34289;48.572;13.378;2024-03-06T06:30:16;27.33;;;16.30;;
48487;SDS011;34289;48.572;13.378;2024-03-06T06:32:42;22.45;;;15.90;;
48487;SDS011;34289;48.572;13.378;2024-03-06T06:35:08;21.88;;;14.70;;
48487;SDS011;34289;48.572;13.378;2024-03-06T06:37:38;21.13;;;13.82;;
48487;SDS011;34289;48.572;13.378;2024-03-06T06:40:05;20.73;;;13.82;;
48487;SDS011;34289;48.572;13.378;2024-03-06T06:42:32;19.77;;;13.70;;
48487;SDS011;34289;48.572;13.378;2024-03-06T06:44:58;23.48;;;14.57;;
48487;SDS011;34289;48.572;13.378;2024-03-06T06:47:24;22.20;;;14.85;;
48487;SDS011;34289;48.572;13.378;2024-03-06T06:49:50;28.02;;;16.85;;
48487;SDS011;34289;48.572;13.378;2024-03-06T06:52:16;26.80;;;16.27;;
48487;SDS011;34289;48.572;13.378;2024-03-06T06:54:42;22.35;;;15.40;;
48487;SDS011;34289;48.572;13.378;2024-03-06T06:57:07;18.77;;;14.05;;
48487;SDS011;34289;48.572;13.378;2024-03-06T06:59:33;17.75;;;14.15;;
48487;SDS011;34289;48.572;13.378;2024-03-06T07:01:59;20.60;;;15.05;;
48487;SDS011;34289;48.572;13.378;2024-03-06T07:04:25;18.80;;;13.27;;
48487;SDS011;34289;48.572;13.378;2024-03-06T07:06:51;21.30;;;13.85;;
48487;SDS011;34289;48.572;13.378;2024-03-06T07:09:17;22.73;;;14.13;;
48487;SDS011;34289;48.572;13.378;2024-03-06T07:11:43;23.00;;;14.35;;
48487;SDS011;34289;48.572;13.378;2024-03-06T07:14:09;18.13;;;14.20;;
48487;SDS011;34289;48.572;13.378;2024-03-06T07:16:43;18.73;;;10.73;;
48487;SDS011;34289;48.572;13.378;2024-03-06T07:21:35;16.05;;;10.65;;
48487;SDS011;34289;48.572;13.378;2024-03-06T07:24:02;16.25;;;10.18;;
48487;SDS011;34289;48.572;13.378;2024-03-06T07:26:28;15.80;;;10.45;;
48487;SDS011;34289;48.572;13.378;2024-03-06T07:28:55;17.67;;;10.27;;
48487;SDS011;34289;48.572;13.378;2024-03-06T07:31:21;14.95;;;10.00;;
48487;SDS011;34289;48.572;13.378;2024-03-06T07:33:46;17.73;;;10.38;;
48487;SDS011;34289;48.572;13.378;2024-03-06T07:36:12;15.48;;;9.43;;
48487;SDS011;34289;48.572;13.378;2024-03-06T07:38:37;18.38;;;10.52;;
48487;SDS011;34289;48.572;13.378;2024-03-06T07:41:03;17.23;;;15.07;;
48487;SDS011;34289;48.572;13.378;2024-03-06T07:43:29;18.08;;;13.45;;
48487;SDS011;34289;48.572;13.378;2024-03-06T07:45:54;17.00;;;14.43;;
48487;SDS011;34289;48.572;13.378;2024-03-06T07:48:20;17.50;;;15.48;;
48487;SDS011;34289;48.572;13.378;2024-03-06T07:50:46;20.00;;;15.60;;
48487;SDS011;34289;48.572;13.378;2024-03-06T07:53:11;18.63;;;15.30;;
48487;SDS011;34289;48.572;13.378;2024-03-06T07:55:37;16.85;;;15.07;;
48487;SDS011;34289;48.572;13.378;2024-03-06T07:58:04;18.70;;;16.90;;
48487;SDS011;34289;48.572;13.378;2024-03-06T08:00:30;20.02;;;18.08;;
48487;SDS011;34289;48.572;13.378;2024-03-06T08:02:56;20.08;;;18.00;;
48487;SDS011;34289;48.572;13.378;2024-03-06T08:05:22;21.67;;;19.50;;
48487;SDS011;34289;48.572;13.378;2024-03-06T08:07:47;20.27;;;18.20;;
48487;SDS011;34289;48.572;13.378;2024-03-06T08:10:13;21.75;;;19.45;;
48487;SDS011;34289;48.572;13.378;2024-03-06T08:12:42;20.95;;;18.75;;
48487;SDS011;34289;48.572;13.378;2024-03-06T08:15:10;22.02;;;18.15;;
48487;SDS011;34289;48.572;13.378;2024-03-06T08:17:40;20.10;;;18.10;;
48487;SDS011;34289;48.572;13.378;2024-03-06T08:20:09;20.75;;;17.45;;
48487;SDS011;34289;48.572;13.378;2024-03-06T08:22:38;20.88;;;18.63;;
48487;SDS011;34289;48.572;13.378;2024-03-06T08:27:32;22.30;;;20.00;;
48487;SDS011;34289;48.572;13.378;2024-03-06T08:30:02;21.17;;;18.58;;
48487;SDS011;34289;48.572;13.378;2024-03-06T08:32:29;20.63;;;18.63;;
48487;SDS011;34289;48.572;13.378;2024-03-06T08:35:00;20.30;;;18.20;;
48487;SDS011;34289;48.572;13.378;2024-03-06T08:37:36;20.45;;;18.13;;
48487;SDS011;34289;48.572;13.378;2024-03-06T08:40:03;20.48;;;18.27;;
48487;SDS011;34289;48.572;13.378;2024-03-06T08:42:29;19.98;;;17.92;;
48487;SDS011;34289;48.572;13.378;2024-03-06T08:44:55;19.85;;;17.70;;
48487;SDS011;34289;48.572;13.378;2024-03-06T08:47:21;20.10;;;18.20;;
48487;SDS011;34289;48.572;13.378;2024-03-06T08:49:47;20.73;;;18.63;;
48487;SDS011;34289;48.572;13.378;2024-03-06T08:52:13;19.98;;;18.00;;
48487;SDS011;34289;48.572;13.378;2024-03-06T08:54:39;21.52;;;19.42;;
48487;SDS011;34289;48.572;13.378;2024-03-06T08:57:06;22.98;;;19.55;;
48487;SDS011;34289;48.572;13.378;2024-03-06T08:59:33;22.40;;;20.38;;
48487;SDS011;34289;48.572;13.378;2024-03-06T09:02:06;20.13;;;17.83;;
48487;SDS011;34289;48.572;13.378;2024-03-06T09:04:38;22.48;;;20.27;;
48487;SDS011;34289;48.572;13.378;2024-03-06T09:07:04;19.35;;;17.45;;
48487;SDS011;34289;48.572;13.378;2024-03-06T09:09:29;19.83;;;17.80;;
48487;SDS011;34289;48.572;13.378;2024-03-06T09:11:55;21.70;;;19.38;;
48487;SDS011;34289;48.572;13.378;2024-03-06T09:14:20;21.63;;;19.48;;
48487;SDS011;34289;48.572;13.378;2024-03-06T09:16:48;21.45;;;19.35;;
48487;SDS011;34289;48.572;13.378;2024-03-06T09:19:13;20.08;;;18.02;;
48487;SDS011;34289;48.572;13.378;2024-03-06T09:21:39;21.48;;;19.20;;
48487;SDS011;34289;48.572;13.378;2024-03-06T09:24:04;22.05;;;19.85;;
48487;SDS011;34289;48.572;13.378;2024-03-06T09:26:30;22.08;;;19.98;;
48487;SDS011;34289;48.572;13.378;2024-03-06T09:28:56;21.85;;;19.58;;
48487;SDS011;34289;48.572;13.378;2024-03-06T09:31:21;22.35;;;20.15;;
48487;SDS011;34289;48.572;13.378;2024-03-06T09:33:47;21.75;;;19.55;;
48487;SDS011;34289;48.572;13.378;2024-03-06T09:36:12;22.00;;;19.63;;
48487;SDS011;34289;48.572;13.378;2024-03-06T09:38:39;21.63;;;19.30;;
48487;SDS011;34289;48.572;13.378;2024-03-06T09:41:05;19.35;;;17.20;;
48487;SDS011;34289;48.572;13.378;2024-03-06T09:43:32;21.48;;;17.95;;
48487;SDS011;34289;48.572;13.378;2024-03-06T09:45:58;19.13;;;16.75;;
48487;SDS011;34289;48.572;13.378;2024-03-06T09:48:24;20.70;;;18.10;;
48487;SDS011;34289;48.572;13.378;2024-03-06T09:50:50;23.08;;;19.20;;
48487;SDS011;34289;48.572;13.378;2024-03-06T09:53:20;20.15;;;17.25;;
48487;SDS011;34289;48.572;13.378;2024-03-06T09:55:47;20.65;;;17.00;;
48487;SDS011;34289;48.572;13.378;2024-03-06T09:58:14;20.45;;;18.27;;
48487;SDS011;34289;48.572;13.378;2024-03-06T10:00:40;21.83;;;18.00;;
48487;SDS011;34289;48.572;13.378;2024-03-06T10:03:05;22.10;;;17.92;;
48487;SDS011;34289;48.572;13.378;2024-03-06T10:05:33;20.52;;;18.23;;
48487;SDS011;34289;48.572;13.378;2024-03-06T10:08:02;20.38;;;18.17;;
48487;SDS011;34289;48.572;13.378;2024-03-06T10:10:29;20.75;;;18.40;;
48487;SDS011;34289;48.572;13.378;2024-03-06T10:12:55;22.98;;;18.52;;
48487;SDS011;34289;48.572;13.378;2024-03-06T10:15:28;22.85;;;18.02;;
48487;SDS011;34289;48.572;13.378;2024-03-06T10:18:13;25.95;;;19.27;;
48487;SDS011;34289;48.572;13.378;2024-03-06T10:20:40;21.70;;;19.13;;
48487;SDS011;34289;48.572;13.378;2024-03-06T10:23:09;22.45;;;18.70;;
48487;SDS011;34289;48.572;13.378;2024-03-06T10:25:35;22.23;;;19.48;;
48487;SDS011;34289;48.572;13.378;2024-03-06T10:30:34;21.02;;;18.02;;
48487;SDS011;34289;48.572;13.378;2024-03-06T10:33:04;18.77;;;16.67;;
48487;SDS011;34289;48.572;13.378;2024-03-06T10:35:32;22.48;;;18.50;;
48487;SDS011;34289;48.572;13.378;2024-03-06T10:38:03;22.20;;;18.20;;
48487;SDS011;34289;48.572;13.378;2024-03-06T10:40:33;22.27;;;18.17;;
48487;SDS011;34289;48.572;13.378;2024-03-06T10:43:01;22.35;;;18.10;;
48487;SDS011;34289;48.572;13.378;2024-03-06T10:45:41;21.25;;;17.05;;
48487;SDS011;34289;48.572;13.378;2024-03-06T10:48:22;20.65;;;18.52;;
48487;SDS011;34289;48.572;13.378;2024-03-06T10:50:49;23.17;;;18.67;;
48487;SDS011;34289;48.572;13.378;2024-03-06T10:53:16;18.88;;;11.57;;
48487;SDS011;34289;48.572;13.378;2024-03-06T10:55:43;14.82;;;10.27;;
48487;SDS011;34289;48.572;13.378;2024-03-06T10:58:09;17.55;;;11.48;;
48487;SDS011;34289;48.572;13.378;2024-03-06T11:00:39;15.20;;;10.05;;
48487;SDS011;34289;48.572;13.378;2024-03-06T11:03:07;18.60;;;10.35;;
48487;SDS011;34289;48.572;13.378;2024-03-06T11:05:40;17.33;;;11.45;;
48487;SDS011;34289;48.572;13.378;2024-03-06T11:10:33;19.45;;;13.55;;
48487;SDS011;34289;48.572;13.378;2024-03-06T11:13:01;20.50;;;13.07;;
48487;SDS011;34289;48.572;13.378;2024-03-06T11:15:30;17.85;;;11.82;;
48487;SDS011;34289;48.572;13.378;2024-03-06T11:17:56;21.65;;;13.20;;
48487;SDS011;34289;48.572;13.378;2024-03-06T11:20:22;19.27;;;12.63;;
48487;SDS011;34289;48.572;13.378;2024-03-06T11:28:28;20.08;;;12.52;;
48487;SDS011;34289;48.572;13.378;2024-03-06T11:33:27;18.10;;;11.98;;
48487;SDS011;34289;48.572;13.378;2024-03-06T11:38:40;18.10;;;11.98;;
48487;SDS011;34289;48.572;13.378;2024-03-06T11:41:06;21.02;;;13.10;;
48487;SDS011;34289;48.572;13.378;2024-03-06T11:43:32;20.67;;;12.23;;
48487;SDS011;34289;48.572;13.378;2024-03-06T11:46:08;19.30;;;12.10;;
48487;SDS011;34289;48.572;13.378;2024-03-06T11:48:36;22.40;;;12.55;;
48487;SDS011;34289;48.572;13.378;2024-03-06T11:51:03;20.58;;;12.98;;
48487;SDS011;34289;48.572;13.378;2024-03-06T11:53:29;19.58;;;12.23;;
48487;SDS011;34289;48.572;13.378;2024-03-06T11:55:55;18.23;;;11.93;;
48487;SDS011;34289;48.572;13.378;2024-03-06T11:58:22;17.60;;;12.10;;
48487;SDS011;34289;48.572;13.378;2024-03-06T12:00:48;18.20;;;11.52;;
48487;SDS011;34289;48.572;13.378;2024-03-06T12:03:13;19.40;;;12.68;;
48487;SDS011;34289;48.572;13.378;2024-03-06T12:05:39;20.58;;;13.45;;
48487;SDS011;34289;48.572;13.378;2024-03-06T12:08:06;23.98;;;13.40;;
48487;SDS011;34289;48.572;13.378;2024-03-06T12:10:38;19.33;;;12.23;;
48487;SDS011;34289;48.572;13.378;2024-03-06T12:13:04;18.17;;;12.82;;
48487;SDS011;34289;48.572;13.378;2024-03-06T12:15:30;18.75;;;13.15;;
48487;SDS011;34289;48.572;13.378;2024-03-06T12:17:58;19.23;;;11.70;;
48487;SDS011;34289;48.572;13.378;2024-03-06T12:20:24;20.55;;;11.98;;
48487;SDS011;34289;48.572;13.378;2024-03-06T12:22:51;19.05;;;11.68;;
48487;SDS011;34289;48.572;13.378;2024-03-06T12:25:20;21.20;;;12.55;;
48487;SDS011;34289;48.572;13.378;2024-03-06T12:27:47;22.77;;;14.02;;
48487;SDS011;34289;48.572;13.378;2024-03-06T12:30:16;21.52;;;13.82;;
48487;SDS011;34289;48.572;13.378;2024-03-06T12:33:06;22.95;;;13.63;;
48487;SDS011;34289;48.572;13.378;2024-03-06T12:35:31;24.95;;;14.93;;
48487;SDS011;34289;48.572;13.378;2024-03-06T12:37:57;26.13;;;15.63;;
48487;SDS011;34289;48.572;13.378;2024-03-06T12:40:23;23.38;;;15.05;;
48487;SDS011;34289;48.572;13.378;2024-03-06T12:42:49;22.63;;;14.43;;
48487;SDS011;34289;48.572;13.378;2024-03-06T12:45:17;24.63;;;14.82;;
48487;SDS011;34289;48.572;13.378;2024-03-06T12:47:43;25.00;;;15.45;;
48487;SDS011;34289;48.572;13.378;2024-03-06T12:52:41;29.00;;;13.82;;
48487;SDS011;34289;48.572;13.378;2024-03-06T12:55:10;20.40;;;14.63;;
48487;SDS011;34289;48.572;13.378;2024-03-06T12:57:36;21.25;;;13.98;;
48487;SDS011;34289;48.572;13.378;2024-03-06T13:00:02;21.77;;;13.13;;
48487;SDS011;34289;48.572;13.378;2024-03-06T13:02:28;20.90;;;13.27;;
48487;SDS011;34289;48.572;13.378;2024-03-06T13:04:53;23.58;;;15.07;;
48487;SDS011;34289;48.572;13.378;2024-03-06T13:07:19;23.13;;;14.43;;
48487;SDS011;34289;48.572;13.378;2024-03-06T13:09:45;23.40;;;13.77;;
48487;SDS011;34289;48.572;13.378;2024-03-06T13:12:10;22.60;;;13.02;;
48487;SDS011;34289;48.572;13.378;2024-03-06T13:14:36;20.38;;;13.63;;
48487;SDS011;34289;48.572;13.378;2024-03-06T13:17:02;24.90;;;15.45;;
48487;SDS011;34289;48.572;13.378;2024-03-06T13:19:28;24.95;;;14.73;;
48487;SDS011;34289;48.572;13.378;2024-03-06T13:21:54;21.65;;;13.73;;
48487;SDS011;34289;48.572;13.378;2024-03-06T13:24:20;23.50;;;13.30;;
48487;SDS011;34289;48.572;13.378;2024-03-06T13:26:46;20.42;;;13.45;;
48487;SDS011;34289;48.572;13.378;2024-03-06T13:29:12;22.70;;;14.43;;
48487;SDS011;34289;48.572;13.378;2024-03-06T13:31:38;21.15;;;13.10;;
48487;SDS011;34289;48.572;13.378;2024-03-06T13:34:04;21.92;;;13.85;;
48487;SDS011;34289;48.572;13.378;2024-03-06T13:36:29;25.50;;;14.52;;
48487;SDS011;34289;48.572;13.378;2024-03-06T13:38:58;24.52;;;14.82;;
48487;SDS011;34289;48.572;13.378;2024-03-06T13:41:23;23.33;;;15.70;;
48487;SDS011;34289;48.572;13.378;2024-03-06T13:43:49;22.95;;;14.15;;
48487;SDS011;34289;48.572;13.378;2024-03-06T13:46:15;21.50;;;14.50;;
48487;SDS011;34289;48.572;13.378;2024-03-06T13:48:40;23.52;;;14.98;;
48487;SDS011;34289;48.572;13.378;2024-03-06T13:51:06;22.02;;;13.70;;
48487;SDS011;34289;48.572;13.378;2024-03-06T13:53:32;23.90;;;15.57;;
48487;SDS011;34289;48.572;13.378;2024-03-06T13:55:58;25.42;;;14.40;;
48487;SDS011;34289;48.572;13.378;2024-03-06T13:58:24;24.90;;;14.77;;
48487;SDS011;34289;48.572;13.378;2024-03-06T14:00:49;22.85;;;14.90;;
48487;SDS011;34289;48.572;13.378;2024-03-06T14:03:16;27.17;;;15.73;;
48487;SDS011;34289;48.572;13.378;2024-03-06T14:05:41;22.02;;;14.40;;
48487;SDS011;34289;48.572;13.378;2024-03-06T14:08:07;25.30;;;15.68;;
48487;SDS011;34289;48.572;13.378;2024-03-06T14:10:36;23.40;;;14.20;;
48487;SDS011;34289;48.572;13.378;2024-03-06T14:13:05;26.35;;;15.90;;
48487;SDS011;34289;48.572;13.378;2024-03-06T14:15:32;25.90;;;15.52;;
48487;SDS011;34289;48.572;13.378;2024-03-06T14:17:57;26.45;;;15.85;;
48487;SDS011;34289;48.572;13.378;2024-03-06T14:20:23;24.50;;;14.65;;
48487;SDS011;34289;48.572;13.378;2024-03-06T14:22:49;24.45;;;14.60;;
48487;SDS011;34289;48.572;13.378;2024-03-06T14:25:15;27.95;;;15.20;;
48487;SDS011;34289;48.572;13.378;2024-03-06T14:27:41;27.63;;;17.20;;
48487;SDS011;34289;48.572;13.378;2024-03-06T14:30:07;23.95;;;15.45;;